createdAt,value
2018-03-31T00:01:29.831Z,99.50
2018-03-31T00:03:56.970Z,99.90
2018-03-31T00:06:24.093Z,99.90
2018-03-31T00:08:51.298Z,99.90
2018-03-31T00:11:19.184Z,99.90
2018-03-31T00:13:46.305Z,99.90
2018-03-31T00:16:13.435Z,99.90
2018-03-31T00:18:40.537Z,99.90
2018-03-31T00:21:07.612Z,99.90
2018-03-31T00:23:34.751Z,99.90
2018-03-31T00:26:01.836Z,99.90
2018-03-31T00:28:28.966Z,99.90
2018-03-31T00:30:56.054Z,99.90
2018-03-31T00:33:23.152Z,99.90
2018-03-31T00:35:50.323Z,99.90
2018-03-31T00:38:17.442Z,99.90
2018-03-31T00:40:44.586Z,99.90
2018-03-31T00:43:11.857Z,99.90
2018-03-31T00:45:38.966Z,99.90
2018-03-31T00:48:06.196Z,99.90
2018-03-31T00:50:33.279Z,99.90
2018-03-31T00:53:01.155Z,99.90
2018-03-31T00:55:28.381Z,99.90
2018-03-31T00:57:56.324Z,99.90
2018-03-31T01:00:23.415Z,99.90
2018-03-31T01:02:50.504Z,99.90
2018-03-31T01:05:17.630Z,99.90
2018-03-31T01:07:44.827Z,99.90
2018-03-31T01:10:11.921Z,99.90
2018-03-31T01:12:39.803Z,99.90
2018-03-31T01:15:06.893Z,99.90
2018-03-31T01:17:34.198Z,99.90
2018-03-31T01:20:01.282Z,99.90
2018-03-31T01:22:28.587Z,99.90
2018-03-31T01:24:56.507Z,99.90
2018-03-31T01:27:24.407Z,99.90
2018-03-31T01:29:51.509Z,99.90
2018-03-31T01:32:18.656Z,99.90
2018-03-31T01:34:45.732Z,99.90
2018-03-31T01:37:12.807Z,99.90
2018-03-31T01:39:40.078Z,99.90
2018-03-31T01:42:07.955Z,99.90
2018-03-31T01:44:35.074Z,99.90
2018-03-31T01:47:02.170Z,99.90
2018-03-31T01:49:29.280Z,99.90
2018-03-31T01:51:56.389Z,99.90
2018-03-31T01:54:23.518Z,99.90
2018-03-31T01:56:50.636Z,99.90
2018-03-31T01:59:18.482Z,99.90
2018-03-31T02:01:45.598Z,99.90
2018-03-31T02:04:12.826Z,99.90
2018-03-31T02:06:39.962Z,99.90
2018-03-31T02:09:07.800Z,99.90
2018-03-31T02:11:34.999Z,99.90
2018-03-31T02:14:02.110Z,99.90
2018-03-31T02:16:29.379Z,99.90
2018-03-31T02:18:56.458Z,99.90
2018-03-31T02:21:23.568Z,99.90
2018-03-31T02:23:50.728Z,99.90
2018-03-31T02:26:18.575Z,99.90
2018-03-31T02:28:45.659Z,99.90
2018-03-31T02:31:13.535Z,99.90
2018-03-31T02:33:40.673Z,99.90
2018-03-31T02:36:07.795Z,99.90
2018-03-31T02:38:34.914Z,99.90
2018-03-31T02:41:02.009Z,99.90
2018-03-31T02:43:29.890Z,99.90
2018-03-31T02:45:57.730Z,99.90
2018-03-31T02:48:24.852Z,99.90
2018-03-31T02:50:51.976Z,99.90
2018-03-31T02:53:19.135Z,99.90
2018-03-31T02:55:46.267Z,99.90
2018-03-31T02:58:13.342Z,99.90
2018-03-31T03:00:40.472Z,99.90
2018-03-31T03:03:07.577Z,99.90
2018-03-31T03:05:34.697Z,99.90
2018-03-31T03:08:01.873Z,99.90
2018-03-31T03:10:28.947Z,99.90
2018-03-31T03:12:56.063Z,99.90
2018-03-31T03:15:23.928Z,99.90
2018-03-31T03:17:51.065Z,99.90
2018-03-31T03:20:18.203Z,99.90
2018-03-31T03:22:45.283Z,99.90
2018-03-31T03:25:12.454Z,99.90
2018-03-31T03:27:39.534Z,99.90
2018-03-31T03:30:06.636Z,99.90
2018-03-31T03:32:33.763Z,99.90
2018-03-31T03:35:00.842Z,99.90
2018-03-31T03:37:28.035Z,99.90
2018-03-31T03:39:55.159Z,99.90
2018-03-31T03:42:23.018Z,99.90
2018-03-31T03:44:50.174Z,99.90
2018-03-31T03:47:17.342Z,99.90
2018-03-31T03:49:44.459Z,99.90
2018-03-31T03:52:11.552Z,99.90
2018-03-31T03:54:38.669Z,99.90
2018-03-31T03:57:05.810Z,99.90
2018-03-31T03:59:32.900Z,99.90
2018-03-31T04:02:00.759Z,99.90
2018-03-31T04:04:28.835Z,99.90
2018-03-31T04:06:56.796Z,99.90
2018-03-31T04:09:24.047Z,99.90
2018-03-31T04:11:51.895Z,99.90
2018-03-31T04:14:19.013Z,99.90
2018-03-31T04:16:46.146Z,99.90
2018-03-31T04:19:13.344Z,99.90
2018-03-31T04:21:40.466Z,99.90
2018-03-31T04:24:07.661Z,99.90
2018-03-31T04:26:35.606Z,99.90
2018-03-31T04:29:02.759Z,99.90
2018-03-31T04:31:29.852Z,99.90
2018-03-31T04:33:56.979Z,99.90
2018-03-31T04:36:24.198Z,99.90
2018-03-31T04:38:51.316Z,99.90
2018-03-31T04:41:18.543Z,99.90
2018-03-31T04:43:46.408Z,99.90
2018-03-31T04:46:14.250Z,99.90
2018-03-31T04:48:41.374Z,99.90
2018-03-31T04:51:08.476Z,99.90
2018-03-31T04:53:35.603Z,99.90
2018-03-31T04:56:02.787Z,99.90
2018-03-31T04:58:29.910Z,99.90
2018-03-31T05:00:56.998Z,99.90
2018-03-31T05:03:24.123Z,99.90
2018-03-31T05:05:52.039Z,99.90
2018-03-31T05:08:19.361Z,99.90
2018-03-31T05:10:47.252Z,99.90
2018-03-31T05:13:14.336Z,99.90
2018-03-31T05:15:41.416Z,99.90
2018-03-31T05:18:09.313Z,99.90
2018-03-31T05:20:36.408Z,99.90
2018-03-31T05:23:03.658Z,99.90
2018-03-31T05:25:30.966Z,99.90
2018-03-31T05:27:58.158Z,99.90
2018-03-31T05:30:25.278Z,99.90
2018-03-31T05:32:52.544Z,99.90
2018-03-31T05:35:19.676Z,99.90
2018-03-31T05:37:46.783Z,99.90
2018-03-31T05:40:13.904Z,99.90
2018-03-31T05:42:41.022Z,99.90
2018-03-31T05:45:08.154Z,99.90
2018-03-31T05:47:35.996Z,99.90
2018-03-31T05:50:03.082Z,99.90
2018-03-31T05:52:30.231Z,99.90
2018-03-31T05:54:57.324Z,99.90
2018-03-31T05:57:24.567Z,99.90
2018-03-31T05:59:51.688Z,99.90
2018-03-31T06:02:18.778Z,99.90
2018-03-31T06:04:45.900Z,99.90
2018-03-31T06:07:12.984Z,99.90
2018-03-31T06:09:40.186Z,99.90
2018-03-31T06:12:07.314Z,99.90
2018-03-31T06:14:34.446Z,99.90
2018-03-31T06:17:01.544Z,99.90
2018-03-31T06:19:28.672Z,99.90
2018-03-31T06:21:55.809Z,99.90
2018-03-31T06:24:22.923Z,99.90
2018-03-31T06:26:50.008Z,99.90
2018-03-31T06:29:17.142Z,99.90
2018-03-31T06:31:44.291Z,99.90
2018-03-31T06:34:11.369Z,99.90
2018-03-31T06:36:38.486Z,99.90
2018-03-31T06:39:05.568Z,99.90
2018-03-31T06:41:32.688Z,99.90
2018-03-31T06:43:59.815Z,99.90
2018-03-31T06:46:26.975Z,99.90
2018-03-31T06:48:54.069Z,99.90
2018-03-31T06:51:21.963Z,99.90
2018-03-31T06:53:49.038Z,99.90
2018-03-31T06:56:16.158Z,99.90
2018-03-31T06:58:43.234Z,99.90
2018-03-31T07:01:10.355Z,99.90
2018-03-31T07:03:37.489Z,99.90
2018-03-31T07:06:05.381Z,99.90
2018-03-31T07:08:32.530Z,99.90
2018-03-31T07:10:59.654Z,99.90
2018-03-31T07:13:27.551Z,99.90
2018-03-31T07:15:54.661Z,99.90
2018-03-31T07:18:21.773Z,99.90
2018-03-31T07:20:48.959Z,99.90
2018-03-31T07:23:16.043Z,99.90
2018-03-31T07:25:43.118Z,99.90
2018-03-31T07:28:10.372Z,99.90
2018-03-31T07:30:37.443Z,99.90
2018-03-31T07:33:04.656Z,99.90
2018-03-31T07:35:31.846Z,99.90
2018-03-31T07:37:58.964Z,99.90
2018-03-31T07:40:26.046Z,99.90
2018-03-31T07:42:53.167Z,99.90
2018-03-31T07:45:20.251Z,99.90
2018-03-31T07:47:47.386Z,99.90
2018-03-31T07:50:14.500Z,99.90
2018-03-31T07:52:41.650Z,99.90
2018-03-31T07:55:08.725Z,99.90
2018-03-31T07:57:35.825Z,99.90
2018-03-31T08:00:03.786Z,99.90
2018-03-31T08:02:30.950Z,99.90
2018-03-31T08:04:58.830Z,99.90
2018-03-31T08:07:25.966Z,99.90
2018-03-31T08:09:53.902Z,99.90
2018-03-31T08:12:21.069Z,99.90
2018-03-31T08:14:48.239Z,99.90
2018-03-31T08:17:16.214Z,99.90
2018-03-31T08:19:44.107Z,99.90
2018-03-31T08:22:11.184Z,99.90
2018-03-31T08:24:39.274Z,99.90
2018-03-31T08:27:06.332Z,99.90
2018-03-31T08:29:33.450Z,99.90
2018-03-31T08:32:00.663Z,99.90
2018-03-31T08:34:27.882Z,99.90
2018-03-31T08:36:57.004Z,99.90
2018-03-31T08:39:24.214Z,99.90
2018-03-31T08:41:51.330Z,99.90
2018-03-31T08:44:18.412Z,99.90
2018-03-31T08:46:45.600Z,99.90
2018-03-31T08:49:13.484Z,99.90
2018-03-31T08:51:40.563Z,99.90
2018-03-31T08:54:07.709Z,99.90
2018-03-31T08:56:34.888Z,99.90
2018-03-31T08:59:02.010Z,99.90
2018-03-31T09:01:29.220Z,99.90
2018-03-31T09:03:56.362Z,99.90
2018-03-31T09:06:23.615Z,99.90
2018-03-31T09:08:50.695Z,99.90
2018-03-31T09:11:17.832Z,99.90
2018-03-31T09:13:44.952Z,99.90
2018-03-31T09:16:12.040Z,99.90
2018-03-31T09:18:39.176Z,99.90
2018-03-31T09:21:07.066Z,99.90
2018-03-31T09:23:34.199Z,99.90
2018-03-31T09:26:01.414Z,99.90
2018-03-31T09:28:28.633Z,99.90
2018-03-31T09:30:55.905Z,99.90
2018-03-31T09:33:22.990Z,99.90
2018-03-31T09:35:50.834Z,99.90
2018-03-31T09:38:17.956Z,99.90
2018-03-31T09:40:45.108Z,99.90
2018-03-31T09:43:12.227Z,99.90
2018-03-31T09:45:39.306Z,99.90
2018-03-31T09:48:06.484Z,99.90
2018-03-31T09:50:33.612Z,99.90
2018-03-31T09:53:00.709Z,99.90
2018-03-31T09:55:27.792Z,99.90
2018-03-31T09:57:55.039Z,99.90
2018-03-31T10:00:27.730Z,99.90
2018-03-31T10:02:54.938Z,99.90
2018-03-31T10:05:22.786Z,99.90
2018-03-31T10:07:49.951Z,99.90
2018-03-31T10:10:17.036Z,99.90
2018-03-31T10:12:44.186Z,99.90
2018-03-31T10:15:11.264Z,99.90
2018-03-31T10:17:38.386Z,99.90
2018-03-31T10:20:05.496Z,99.60
2018-03-31T10:22:32.654Z,97.20
2018-03-31T10:24:59.770Z,96.30
2018-03-31T10:27:26.877Z,97.20
2018-03-31T10:29:53.976Z,96.20
2018-03-31T10:32:21.090Z,96.80
2018-03-31T10:34:48.169Z,97.20
2018-03-31T10:37:15.297Z,95.40
2018-03-31T10:39:42.434Z,92.80
2018-03-31T10:42:09.536Z,93.00
2018-03-31T10:44:36.628Z,92.30
2018-03-31T10:47:03.742Z,92.70
2018-03-31T10:49:30.831Z,92.90
2018-03-31T10:51:57.967Z,92.20
2018-03-31T10:54:25.811Z,92.20
2018-03-31T10:56:52.900Z,92.20
2018-03-31T10:59:20.019Z,92.70
2018-03-31T11:01:48.038Z,91.10
2018-03-31T11:04:15.146Z,91.10
2018-03-31T11:06:43.039Z,92.20
2018-03-31T11:09:10.126Z,92.20
2018-03-31T11:11:37.204Z,93.10
2018-03-31T11:14:04.318Z,92.60
2018-03-31T11:16:31.452Z,90.50
2018-03-31T11:18:58.536Z,90.80
2018-03-31T11:21:25.619Z,91.00
2018-03-31T11:23:53.508Z,84.30
2018-03-31T11:26:20.599Z,84.20
2018-03-31T11:28:47.720Z,86.00
2018-03-31T11:31:14.847Z,88.80
2018-03-31T11:33:41.924Z,89.70
2018-03-31T11:36:09.042Z,89.40
2018-03-31T11:38:36.120Z,88.30
2018-03-31T11:41:03.242Z,89.00
2018-03-31T11:43:30.324Z,88.70
2018-03-31T11:45:57.402Z,89.20
2018-03-31T11:48:24.516Z,90.00
2018-03-31T11:50:51.609Z,90.40
2018-03-31T11:53:18.727Z,90.60
2018-03-31T11:55:45.808Z,92.20
2018-03-31T11:58:12.934Z,91.10
2018-03-31T12:00:40.074Z,90.60
2018-03-31T12:03:07.211Z,91.50
2018-03-31T12:05:34.290Z,92.70
2018-03-31T12:08:01.375Z,92.60
2018-03-31T12:10:29.262Z,92.20
2018-03-31T12:12:56.383Z,92.20
2018-03-31T12:15:24.266Z,91.10
2018-03-31T12:17:52.110Z,90.00
2018-03-31T12:20:19.235Z,89.90
2018-03-31T12:22:46.355Z,91.40
2018-03-31T12:25:13.440Z,89.50
2018-03-31T12:27:40.549Z,88.30
2018-03-31T12:30:07.631Z,87.70
2018-03-31T12:32:34.873Z,86.10
2018-03-31T12:35:01.959Z,90.20
2018-03-31T12:37:29.109Z,91.20
2018-03-31T12:39:56.182Z,90.80
2018-03-31T12:42:24.081Z,86.60
2018-03-31T12:44:51.203Z,86.50
2018-03-31T12:47:18.368Z,86.30
2018-03-31T12:49:46.208Z,85.60
2018-03-31T12:52:13.401Z,85.60
2018-03-31T12:54:40.431Z,83.40
2018-03-31T12:57:07.515Z,82.20
2018-03-31T12:59:34.649Z,82.00
2018-03-31T13:02:01.735Z,82.10
2018-03-31T13:04:28.873Z,82.20
2018-03-31T13:06:56.005Z,80.50
2018-03-31T13:09:23.134Z,81.20
2018-03-31T13:11:50.277Z,83.20
2018-03-31T13:14:17.390Z,84.60
2018-03-31T13:16:44.531Z,83.40
2018-03-31T13:19:11.621Z,83.20
2018-03-31T13:21:39.506Z,82.50
2018-03-31T13:24:06.619Z,82.50
2018-03-31T13:26:33.750Z,83.60
2018-03-31T13:29:00.873Z,84.70
2018-03-31T13:31:28.051Z,85.00
2018-03-31T13:33:55.136Z,83.70
2018-03-31T13:36:22.977Z,84.70
2018-03-31T13:38:50.129Z,84.60
2018-03-31T13:41:18.746Z,82.60
2018-03-31T13:43:45.963Z,83.50
2018-03-31T13:46:13.094Z,84.80
2018-03-31T13:48:40.200Z,82.80
2018-03-31T13:51:07.318Z,84.10
2018-03-31T13:53:34.443Z,84.40
2018-03-31T13:56:01.591Z,84.90
2018-03-31T13:58:28.857Z,86.50
2018-03-31T14:00:56.011Z,85.80
2018-03-31T14:03:23.165Z,86.80
2018-03-31T14:05:50.314Z,85.40
2018-03-31T14:08:17.400Z,86.00
2018-03-31T14:10:45.243Z,85.20
2018-03-31T14:13:12.366Z,85.20
2018-03-31T14:15:39.459Z,85.20
2018-03-31T14:18:06.600Z,85.10
2018-03-31T14:20:34.449Z,87.70
2018-03-31T14:23:01.572Z,87.60
2018-03-31T14:25:28.692Z,88.40
2018-03-31T14:27:55.809Z,88.70
2018-03-31T14:30:22.884Z,90.20
2018-03-31T14:32:50.059Z,90.40
2018-03-31T14:35:17.166Z,90.80
2018-03-31T14:37:44.244Z,91.40
2018-03-31T14:40:11.404Z,91.60
2018-03-31T14:42:38.528Z,91.20
2018-03-31T14:45:06.359Z,91.30
2018-03-31T14:47:35.713Z,91.20
2018-03-31T14:50:02.998Z,90.90
2018-03-31T14:52:30.080Z,90.70
2018-03-31T14:54:57.209Z,91.10
2018-03-31T14:57:24.318Z,91.40
2018-03-31T14:59:51.466Z,91.00
2018-03-31T15:02:18.583Z,90.90
2018-03-31T15:04:45.724Z,91.30
2018-03-31T15:07:12.802Z,91.50
2018-03-31T15:09:40.706Z,91.80
2018-03-31T15:12:07.921Z,91.80
2018-03-31T15:14:35.798Z,91.60
2018-03-31T15:17:02.976Z,91.60
2018-03-31T15:19:30.122Z,92.00
2018-03-31T15:21:57.251Z,92.20
2018-03-31T15:24:24.532Z,92.70
2018-03-31T15:26:51.727Z,92.90
2018-03-31T15:29:19.593Z,94.20
2018-03-31T15:31:46.710Z,93.90
2018-03-31T15:34:15.349Z,94.70
2018-03-31T15:36:43.245Z,94.20
2018-03-31T15:39:10.382Z,94.20
2018-03-31T15:41:37.503Z,94.60
2018-03-31T15:44:04.675Z,95.10
2018-03-31T15:46:31.788Z,94.40
2018-03-31T15:48:58.903Z,94.70
2018-03-31T15:51:25.991Z,95.20
2018-03-31T15:53:53.116Z,95.60
2018-03-31T15:56:20.194Z,95.90
2018-03-31T15:58:47.319Z,96.10
2018-03-31T16:01:14.390Z,96.20
2018-03-31T16:03:41.523Z,96.30
2018-03-31T16:06:08.624Z,96.60
2018-03-31T16:08:36.475Z,96.90
2018-03-31T16:11:03.608Z,96.90
2018-03-31T16:13:30.715Z,96.70
2018-03-31T16:15:57.804Z,97.10
2018-03-31T16:18:24.926Z,97.70
2018-03-31T16:20:52.045Z,97.90
2018-03-31T16:23:19.113Z,98.60
2018-03-31T16:25:46.573Z,98.70
2018-03-31T16:28:13.676Z,98.80
2018-03-31T16:30:40.827Z,98.80
2018-03-31T16:33:07.907Z,98.90
2018-03-31T16:35:34.995Z,99.40
2018-03-31T16:38:02.122Z,99.90
2018-03-31T16:40:29.243Z,99.90
2018-03-31T16:42:57.123Z,99.90
2018-03-31T16:45:24.230Z,99.90
2018-03-31T16:47:51.462Z,99.90
2018-03-31T16:50:18.560Z,99.90
2018-03-31T16:52:46.429Z,99.90
2018-03-31T16:55:13.626Z,99.90
2018-03-31T16:57:40.707Z,99.90
2018-03-31T17:00:07.826Z,99.90
2018-03-31T17:02:34.967Z,99.90
2018-03-31T17:05:02.055Z,99.90
2018-03-31T17:07:29.141Z,99.90
2018-03-31T17:09:56.253Z,99.90
2018-03-31T17:12:23.395Z,99.90
2018-03-31T17:14:50.600Z,99.90
2018-03-31T17:17:17.693Z,99.90
2018-03-31T17:19:44.866Z,99.90
2018-03-31T17:22:12.053Z,99.90
2018-03-31T17:24:39.126Z,99.90
2018-03-31T17:27:06.258Z,99.90
2018-03-31T17:29:33.396Z,99.90
2018-03-31T17:32:00.535Z,99.90
2018-03-31T17:34:27.694Z,99.90
2018-03-31T17:36:54.821Z,99.90
2018-03-31T17:39:21.964Z,99.90
2018-03-31T17:41:49.853Z,99.90
2018-03-31T17:44:17.735Z,99.90
2018-03-31T17:46:44.850Z,99.90
2018-03-31T17:49:12.105Z,99.90
2018-03-31T17:51:39.242Z,99.90
2018-03-31T17:54:06.332Z,99.90
2018-03-31T17:56:33.430Z,99.90
2018-03-31T17:59:00.590Z,99.90
2018-03-31T18:01:27.689Z,99.90
2018-03-31T18:03:54.853Z,99.90
2018-03-31T18:06:22.036Z,99.90
2018-03-31T18:08:49.317Z,99.90
2018-03-31T18:11:16.393Z,99.90
2018-03-31T18:13:43.524Z,99.90
2018-03-31T18:16:11.412Z,99.90
2018-03-31T18:18:38.494Z,99.90
2018-03-31T18:21:05.617Z,99.90
2018-03-31T18:23:32.782Z,99.90
2018-03-31T18:26:00.006Z,99.90
2018-03-31T18:28:27.121Z,99.90
2018-03-31T18:30:54.366Z,99.90
2018-03-31T18:33:21.449Z,99.90
2018-03-31T18:35:48.593Z,99.90
2018-03-31T18:38:16.444Z,99.90
2018-03-31T18:40:43.591Z,99.90
2018-03-31T18:43:10.712Z,99.90
2018-03-31T18:45:38.020Z,99.90
2018-03-31T18:48:05.872Z,99.90
2018-03-31T18:50:32.984Z,99.90
2018-03-31T18:53:00.089Z,99.90
2018-03-31T18:55:28.002Z,99.90
2018-03-31T18:57:55.126Z,99.90
2018-03-31T19:00:22.212Z,99.90
2018-03-31T19:02:49.440Z,99.90
2018-03-31T19:05:16.532Z,99.90
2018-03-31T19:07:43.636Z,99.90
2018-03-31T19:10:10.766Z,99.90
2018-03-31T19:12:37.887Z,99.90
2018-03-31T19:15:04.965Z,99.90
2018-03-31T19:17:32.131Z,99.90
2018-03-31T19:19:59.247Z,99.90
2018-03-31T19:22:26.357Z,99.90
2018-03-31T19:24:59.088Z,99.90
2018-03-31T19:27:27.105Z,99.90
2018-03-31T19:29:54.173Z,99.90
2018-03-31T19:32:21.297Z,99.90
2018-03-31T19:34:48.464Z,99.90
2018-03-31T19:37:15.533Z,99.90
2018-03-31T19:39:48.219Z,99.90
2018-03-31T19:42:15.418Z,99.90
2018-03-31T19:44:42.516Z,99.90
2018-03-31T19:47:09.635Z,99.90
2018-03-31T19:49:36.837Z,99.90
2018-03-31T19:52:04.804Z,99.90
2018-03-31T19:54:31.911Z,99.90
2018-03-31T19:56:59.041Z,99.90
2018-03-31T19:59:26.187Z,99.90
2018-03-31T20:01:53.315Z,99.90
2018-03-31T20:04:20.404Z,99.90
2018-03-31T20:06:47.536Z,99.90
2018-03-31T20:09:14.620Z,99.90
2018-03-31T20:11:41.706Z,99.90
2018-03-31T20:14:09.629Z,99.90
2018-03-31T20:16:36.714Z,99.90
2018-03-31T20:19:04.609Z,99.90
2018-03-31T20:21:31.777Z,99.90
2018-03-31T20:23:58.858Z,99.90
2018-03-31T20:26:26.021Z,99.90
2018-03-31T20:28:53.139Z,99.90
2018-03-31T20:31:20.285Z,99.90
2018-03-31T20:33:47.393Z,99.90
2018-03-31T20:36:15.279Z,99.90
2018-03-31T20:38:42.362Z,99.90
2018-03-31T20:41:09.449Z,99.90
2018-03-31T20:43:37.357Z,99.90
2018-03-31T20:46:04.433Z,99.90
2018-03-31T20:48:31.556Z,99.90
2018-03-31T20:50:58.646Z,99.90
2018-03-31T20:53:25.770Z,99.90
2018-03-31T20:55:52.856Z,99.90
2018-03-31T20:58:19.974Z,99.90
2018-03-31T21:00:47.053Z,99.90
2018-03-31T21:03:14.198Z,99.90
2018-03-31T21:05:41.287Z,99.90
2018-03-31T21:08:08.410Z,99.90
2018-03-31T21:10:36.271Z,99.90
2018-03-31T21:13:03.409Z,99.90
2018-03-31T21:15:30.498Z,99.90
2018-03-31T21:17:58.444Z,99.90
2018-03-31T21:20:25.537Z,99.90
2018-03-31T21:22:52.667Z,99.90
2018-03-31T21:25:19.749Z,99.90
2018-03-31T21:27:46.875Z,99.90
2018-03-31T21:30:13.955Z,99.90
2018-03-31T21:32:41.119Z,99.90
2018-03-31T21:35:08.209Z,99.90
2018-03-31T21:37:35.760Z,99.90
2018-03-31T21:40:03.619Z,99.90
2018-03-31T21:42:30.713Z,99.90
2018-03-31T21:44:57.831Z,99.90
2018-03-31T21:47:25.741Z,99.90
2018-03-31T21:49:52.853Z,99.90
2018-03-31T21:52:19.968Z,99.90
2018-03-31T21:54:47.298Z,99.90
2018-03-31T21:57:14.767Z,99.90
2018-03-31T21:59:42.247Z,99.90
2018-03-31T22:02:11.549Z,99.90
2018-03-31T22:04:38.856Z,99.90
2018-03-31T22:07:05.938Z,99.90
2018-03-31T22:09:33.169Z,99.90
2018-03-31T22:12:00.407Z,99.90
2018-03-31T22:14:33.257Z,99.90
2018-03-31T22:17:00.441Z,99.90
2018-03-31T22:19:27.772Z,99.90
2018-03-31T22:21:55.415Z,99.90
2018-03-31T22:24:22.520Z,99.90
2018-03-31T22:26:49.650Z,99.90
2018-03-31T22:29:16.730Z,99.90
2018-03-31T22:31:44.982Z,99.90
2018-03-31T22:34:12.087Z,99.90
2018-03-31T22:36:39.226Z,99.90
2018-03-31T22:39:07.074Z,99.90
2018-03-31T22:41:34.347Z,99.90
2018-03-31T22:44:01.565Z,99.90
2018-03-31T22:46:28.673Z,99.90
2018-03-31T22:48:55.998Z,99.90
2018-03-31T22:51:23.073Z,99.90
2018-03-31T22:53:50.220Z,99.90
2018-03-31T22:56:17.765Z,99.90
2018-03-31T22:58:45.712Z,99.90
2018-03-31T23:01:12.792Z,99.90
2018-03-31T23:03:40.023Z,99.90
2018-03-31T23:06:07.242Z,99.90
2018-03-31T23:08:34.359Z,99.90
2018-03-31T23:11:01.442Z,99.90
2018-03-31T23:13:28.705Z,99.90
2018-03-31T23:15:55.862Z,99.90
2018-03-31T23:18:23.439Z,99.90
2018-03-31T23:20:51.884Z,99.90
2018-03-31T23:23:19.178Z,99.90
2018-03-31T23:25:46.278Z,99.90
2018-03-31T23:28:13.396Z,99.90
2018-03-31T23:30:40.474Z,99.90
2018-03-31T23:33:07.617Z,99.90
2018-03-31T23:35:34.703Z,99.90
2018-03-31T23:38:01.792Z,99.90
2018-03-31T23:40:28.932Z,99.90
2018-03-31T23:42:56.104Z,99.90
2018-03-31T23:45:23.211Z,99.90
2018-03-31T23:47:50.330Z,99.90
2018-03-31T23:50:18.224Z,99.90
2018-03-31T23:52:45.358Z,99.90
2018-03-31T23:55:12.440Z,99.90
2018-03-31T23:57:39.607Z,99.90
